HSH weather

Henderson Executive Airport
Las Vegas, Nevada, United States

Public forecast

Using degrees Fahrenheit for public forecast. Weather courtesy of forecast.io.

Current aviation weather report (METAR) for Henderson Executive Airport

Retrieved 2019/10/19 04:56 UTC (39 minutes ago):

KHND 190456Z AUTO 16008KT 10SM CLR 15/M11 A2995 RMK AO2 SLP147 T01501106

Aviation forecast (TAF) for Henderson Executive Airport

Retrieved 2019-10-19 00:22 UTC (5 hours ago):

TAF KHND 182320Z 1900/1924 03006KT P6SM SKC FM190200 19007KT P6SM FEW250 FM191200 VRB05KT P6SM FEW250